KROX/ROX METAR and TAF weather

Enter ICAO airport designator
Station Type Date Time Source
KROX METAR 2019/12/06 08:57 UTC NOAA

KROX 060857Z AUTO 25003KT 10SM CLR M12/M15 A3030 RMK AO2


Station Type Date Time Source
KROX Decoded METAR 2019/12/06 08:57 UTC NOAA

Roseau, Roseau Municipal Airport/Rudy Billberg Field, MN, United States (KROX) 48-51N 095-42W
Dec 06, 2019 - 03:57 AM EST / 2019.12.06 0857 UTC
Wind: from the WSW (250 degrees) at 3 MPH (3 KT):0
Visibility: 10 mile(s):0
Sky conditions: clear
Temperature: 10 F (-12 C)
Dew Point: 5 F (-15 C)
Relative Humidity: 78%
Pressure (altimeter): 30.3 in. Hg (1026 hPa)
ob: KROX 060857Z AUTO 25003KT 10SM CLR M12/M15 A3030 RMK AO2
cycle: 9

Station Type Date Time Source
KROX TAF UTC NOAA

Error!

Example: see airport list